Time;durP1;ratioP1;P1;durP2;ratioP2;P2;SDS_P1;SDS_P2;PMS_P1;PMS_P2;Temp;Humidity;BMP_temperature;BMP_pressure;BME280_temperature;BME280_humidity;BME280_pressure;Samples;Min_cycle;Max_cycle;Signal;HPM_P1;HPM_P2
2021/06/13 00:02:15;;;;;;;6.35;4.82;;;;;;;;;;5072104;28;20057;-59
2021/06/13 00:04:43;;;;;;;9.07;5.28;;;;;;;;;;5070911;28;20151;-58
2021/06/13 00:07:11;;;;;;;7.95;4.50;;;;;;;;;;5071410;28;20044;-58
2021/06/13 00:09:39;;;;;;;10.95;5.05;;;;;;;;;;5071704;28;20395;-58
2021/06/13 00:12:07;;;;;;;5.90;4.20;;;;;;;;;;5071316;28;20440;-58
2021/06/13 00:14:35;;;;;;;7.82;4.80;;;;;;;;;;5072177;28;20087;-58
2021/06/13 00:17:03;;;;;;;6.43;4.80;;;;;;;;;;5073066;28;20143;-57
2021/06/13 00:19:32;;;;;;;8.85;5.20;;;;;;;;;;5075498;28;20059;-58
2021/06/13 00:22:00;;;;;;;8.63;5.20;;;;;;;;;;5071720;28;20052;-58
2021/06/13 00:24:28;;;;;;;8.00;4.82;;;;;;;;;;5071239;28;20043;-58
2021/06/13 00:26:56;;;;;;;6.80;5.10;;;;;;;;;;5077063;28;20104;-58
2021/06/13 00:29:24;;;;;;;6.50;5.05;;;;;;;;;;5074405;28;20096;-58
2021/06/13 00:31:52;;;;;;;7.18;4.95;;;;;;;;;;5075355;28;20136;-59
2021/06/13 00:34:21;;;;;;;8.85;5.70;;;;;;;;;;5071270;28;20078;-59
2021/06/13 00:36:50;;;;;;;7.40;5.22;;;;;;;;;;5070397;28;20195;-59
2021/06/13 00:39:18;;;;;;;8.63;5.22;;;;;;;;;;5070401;28;20071;-58
2021/06/13 00:41:46;;;;;;;6.05;4.80;;;;;;;;;;5071196;28;20049;-58
2021/06/13 00:44:14;;;;;;;8.45;5.15;;;;;;;;;;5069435;28;20563;-58
2021/06/13 00:46:42;;;;;;;8.57;5.20;;;;;;;;;;5070647;28;20041;-58
2021/06/13 00:49:10;;;;;;;7.50;5.05;;;;;;;;;;5065799;28;20168;-58
2021/06/13 00:51:38;;;;;;;8.57;5.68;;;;;;;;;;5070318;28;20068;-58
2021/06/13 00:54:07;;;;;;;7.55;5.32;;;;;;;;;;5070958;28;20055;-59
2021/06/13 00:56:35;;;;;;;9.15;5.55;;;;;;;;;;5070370;28;20106;-59
2021/06/13 00:59:03;;;;;;;7.22;5.00;;;;;;;;;;5070336;28;20036;-59
2021/06/13 01:01:31;;;;;;;10.18;5.82;;;;;;;;;;5070023;28;20656;-58
2021/06/13 01:03:59;;;;;;;6.75;5.32;;;;;;;;;;5068658;28;20464;-60
2021/06/13 01:06:29;;;;;;;7.35;5.65;;;;;;;;;;5068516;28;20262;-58
2021/06/13 01:08:58;;;;;;;7.63;5.35;;;;;;;;;;5069872;28;20126;-58
2021/06/13 01:11:32;;;;;;;10.07;5.10;;;;;;;;;;5071465;28;20041;-59
2021/06/13 01:14:03;;;;;;;8.00;5.63;;;;;;;;;;5070189;28;20119;-59
2021/06/13 01:16:35;;;;;;;7.93;5.75;;;;;;;;;;5070016;28;20049;-59
2021/06/13 01:19:05;;;;;;;9.85;6.28;;;;;;;;;;5069824;28;20131;-59
2021/06/13 01:21:35;;;;;;;7.25;5.15;;;;;;;;;;5069957;28;20050;-58
2021/06/13 01:24:16;;;;;;;10.48;5.72;;;;;;;;;;5070692;28;20080;-59
2021/06/13 01:27:11;;;;;;;8.25;5.88;;;;;;;;;;5069466;28;20147;-58
2021/06/13 01:29:42;;;;;;;7.22;5.72;;;;;;;;;;5068988;28;20047;-59
2021/06/13 01:32:13;;;;;;;8.95;5.53;;;;;;;;;;5069255;28;20051;-58
2021/06/13 01:34:44;;;;;;;9.88;6.28;;;;;;;;;;5069137;28;20139;-58
2021/06/13 01:37:14;;;;;;;7.90;5.78;;;;;;;;;;5069729;28;20052;-58
2021/06/13 01:39:43;;;;;;;8.68;6.00;;;;;;;;;;5051551;28;20136;-58
2021/06/13 01:42:11;;;;;;;10.20;5.88;;;;;;;;;;5065007;28;20131;-57
2021/06/13 01:44:41;;;;;;;8.55;6.22;;;;;;;;;;5070033;28;20128;-59
2021/06/13 01:47:10;;;;;;;8.85;6.13;;;;;;;;;;5069300;28;20127;-58
2021/06/13 01:49:39;;;;;;;8.07;6.05;;;;;;;;;;5053669;28;20045;-58
2021/06/13 01:52:08;;;;;;;8.48;6.18;;;;;;;;;;5061799;28;20159;-58
2021/06/13 01:54:36;;;;;;;12.55;6.65;;;;;;;;;;5065165;28;20064;-58
2021/06/13 01:57:05;;;;;;;9.73;6.53;;;;;;;;;;5068912;28;20415;-58
2021/06/13 01:59:33;;;;;;;8.57;6.43;;;;;;;;;;5069777;28;20078;-58
2021/06/13 02:02:03;;;;;;;7.55;5.75;;;;;;;;;;5067194;28;20050;-57
2021/06/13 02:04:33;;;;;;;10.77;6.13;;;;;;;;;;5068536;28;20207;-58
2021/06/13 02:07:03;;;;;;;9.65;6.22;;;;;;;;;;5069035;28;20076;-58
2021/06/13 02:09:31;;;;;;;12.48;6.10;;;;;;;;;;5069779;28;20131;-57
2021/06/13 02:12:00;;;;;;;8.60;6.43;;;;;;;;;;5069883;28;20064;-57
2021/06/13 02:14:29;;;;;;;7.90;5.63;;;;;;;;;;5055376;28;20124;-57
2021/06/13 02:16:58;;;;;;;10.23;6.20;;;;;;;;;;5059016;28;20518;-58
2021/06/13 02:19:28;;;;;;;11.55;6.38;;;;;;;;;;5067826;28;20451;-57
2021/06/13 02:21:58;;;;;;;8.00;5.78;;;;;;;;;;5069118;28;20132;-57
2021/06/13 02:24:27;;;;;;;8.32;6.07;;;;;;;;;;5069127;28;20544;-57
2021/06/13 02:26:56;;;;;;;10.55;6.55;;;;;;;;;;5068957;28;20050;-57
2021/06/13 02:29:25;;;;;;;8.70;6.32;;;;;;;;;;5069189;28;20171;-57
2021/06/13 02:31:54;;;;;;;9.43;6.07;;;;;;;;;;5069549;28;20055;-57
2021/06/13 02:34:23;;;;;;;9.25;6.03;;;;;;;;;;5067849;28;20048;-58
2021/06/13 02:36:54;;;;;;;8.27;5.85;;;;;;;;;;5061104;28;20052;-58
2021/06/13 02:39:22;;;;;;;10.18;6.90;;;;;;;;;;5069272;28;20054;-57
2021/06/13 02:41:50;;;;;;;11.35;6.95;;;;;;;;;;5069924;28;20147;-58
2021/06/13 02:44:18;;;;;;;7.75;6.18;;;;;;;;;;5069369;28;20048;-59
2021/06/13 02:46:46;;;;;;;12.80;6.30;;;;;;;;;;5069049;28;20048;-57
2021/06/13 02:49:14;;;;;;;10.23;6.07;;;;;;;;;;5069260;28;20060;-57
2021/06/13 02:51:49;;;;;;;12.18;6.40;;;;;;;;;;5073346;28;20055;-58
2021/06/13 02:54:19;;;;;;;8.20;6.10;;;;;;;;;;5072663;28;20136;-57
2021/06/13 02:56:49;;;;;;;11.55;6.60;;;;;;;;;;5052604;28;20091;-58
2021/06/13 02:59:24;;;;;;;11.63;6.82;;;;;;;;;;5071349;28;20568;-58
2021/06/13 03:01:53;;;;;;;11.80;7.43;;;;;;;;;;5053874;28;20136;-58
2021/06/13 03:04:22;;;;;;;9.77;6.35;;;;;;;;;;5070338;28;20068;-58
2021/06/13 03:06:53;;;;;;;8.95;6.50;;;;;;;;;;5073625;28;20051;-58
2021/06/13 03:09:23;;;;;;;10.40;6.25;;;;;;;;;;5072065;28;20040;-58
2021/06/13 03:11:51;;;;;;;11.23;6.82;;;;;;;;;;5072288;28;20091;-58
2021/06/13 03:14:19;;;;;;;10.75;7.40;;;;;;;;;;5071503;28;20460;-58
2021/06/13 03:16:47;;;;;;;9.15;5.90;;;;;;;;;;5073249;28;20044;-58
2021/06/13 03:19:16;;;;;;;10.45;6.95;;;;;;;;;;5071917;28;20059;-58
2021/06/13 03:21:45;;;;;;;10.23;6.55;;;;;;;;;;5072256;28;20052;-59
2021/06/13 03:24:14;;;;;;;11.05;7.13;;;;;;;;;;5072525;28;20047;-58
2021/06/13 03:26:43;;;;;;;9.57;6.53;;;;;;;;;;5072978;28;20135;-58
2021/06/13 03:29:12;;;;;;;10.30;6.80;;;;;;;;;;5072265;28;20044;-57
2021/06/13 03:31:41;;;;;;;9.43;6.72;;;;;;;;;;5072425;28;20040;-57
2021/06/13 03:34:09;;;;;;;9.93;7.15;;;;;;;;;;5072415;28;20131;-57
2021/06/13 03:36:38;;;;;;;13.20;7.03;;;;;;;;;;5067775;28;20135;-58
2021/06/13 03:39:06;;;;;;;10.65;6.88;;;;;;;;;;5066436;28;20139;-57
2021/06/13 03:41:35;;;;;;;10.82;6.85;;;;;;;;;;5055584;28;20099;-58
2021/06/13 03:44:05;;;;;;;11.65;7.55;;;;;;;;;;5067159;28;20049;-58
2021/06/13 03:46:34;;;;;;;9.50;6.40;;;;;;;;;;5069036;28;20040;-58
2021/06/13 03:49:02;;;;;;;11.40;7.20;;;;;;;;;;5068461;28;20058;-58
2021/06/13 03:51:31;;;;;;;11.30;7.07;;;;;;;;;;5069386;28;20045;-58
2021/06/13 03:53:59;;;;;;;11.30;6.88;;;;;;;;;;5067076;28;20393;-58
2021/06/13 03:56:29;;;;;;;10.98;6.97;;;;;;;;;;5067984;28;20436;-58
2021/06/13 03:58:58;;;;;;;11.45;7.25;;;;;;;;;;5068284;28;20396;-57
2021/06/13 04:01:28;;;;;;;10.95;7.25;;;;;;;;;;5067008;28;20049;-58
2021/06/13 04:03:57;;;;;;;13.60;6.97;;;;;;;;;;5052343;28;20061;-58
2021/06/13 04:06:26;;;;;;;10.80;7.25;;;;;;;;;;5048350;28;20117;-57
2021/06/13 04:08:55;;;;;;;9.80;6.32;;;;;;;;;;5044410;28;20119;-58
2021/06/13 04:11:24;;;;;;;10.95;7.50;;;;;;;;;;5042532;28;20120;-58
2021/06/13 04:13:53;;;;;;;12.98;7.03;;;;;;;;;;5044619;28;20055;-58
2021/06/13 04:16:23;;;;;;;15.73;7.55;;;;;;;;;;5047508;28;20132;-58
2021/06/13 04:18:53;;;;;;;11.13;6.90;;;;;;;;;;5047882;28;20140;-58
2021/06/13 04:21:22;;;;;;;12.02;6.60;;;;;;;;;;5036667;28;20054;-58
2021/06/13 04:23:50;;;;;;;12.02;7.15;;;;;;;;;;5047233;28;20049;-58
2021/06/13 04:26:19;;;;;;;11.75;8.05;;;;;;;;;;5047676;28;20345;-59
2021/06/13 04:28:49;;;;;;;11.35;7.55;;;;;;;;;;5047473;28;20051;-58
2021/06/13 04:31:19;;;;;;;12.80;7.32;;;;;;;;;;5046102;28;20440;-59
2021/06/13 04:33:49;;;;;;;11.45;7.57;;;;;;;;;;5047440;28;20049;-58
2021/06/13 04:36:21;;;;;;;12.45;7.68;;;;;;;;;;5046712;28;20171;-59
2021/06/13 04:38:49;;;;;;;10.55;7.75;;;;;;;;;;5047482;28;20136;-58
2021/06/13 04:41:18;;;;;;;12.60;7.90;;;;;;;;;;5047458;28;20051;-58
2021/06/13 04:43:47;;;;;;;15.85;7.47;;;;;;;;;;5047148;28;20060;-58
2021/06/13 04:46:21;;;;;;;10.20;6.30;;;;;;;;;;5045440;28;20073;-58
2021/06/13 04:48:49;;;;;;;11.68;7.43;;;;;;;;;;5044462;28;20061;-58
2021/06/13 04:51:20;;;;;;;11.82;6.75;;;;;;;;;;5047368;28;20059;-58
2021/06/13 04:54:07;;;;;;;11.10;6.30;;;;;;;;;;5045469;28;20053;-58
2021/06/13 04:56:38;;;;;;;8.68;6.50;;;;;;;;;;5044673;28;20045;-58
2021/06/13 04:59:06;;;;;;;11.55;7.20;;;;;;;;;;5045828;28;20072;-58
2021/06/13 05:01:35;;;;;;;13.18;6.88;;;;;;;;;;5046842;28;20049;-58
2021/06/13 05:04:04;;;;;;;14.35;7.47;;;;;;;;;;5060392;28;20052;-58
2021/06/13 05:06:33;;;;;;;12.77;6.20;;;;;;;;;;5065514;28;20053;-59
2021/06/13 05:09:02;;;;;;;13.35;6.18;;;;;;;;;;5067755;28;20934;-58
2021/06/13 05:11:30;;;;;;;11.00;6.22;;;;;;;;;;5060564;28;20056;-58
2021/06/13 05:13:59;;;;;;;10.68;6.40;;;;;;;;;;5064946;28;20491;-58
2021/06/13 05:16:27;;;;;;;12.35;6.03;;;;;;;;;;5066051;28;20072;-58
2021/06/13 05:18:55;;;;;;;9.25;5.20;;;;;;;;;;5067585;28;20044;-58
2021/06/13 05:21:23;;;;;;;12.02;6.45;;;;;;;;;;5066081;28;20047;-59
2021/06/13 05:23:53;;;;;;;11.63;5.40;;;;;;;;;;5068047;28;20041;-59
2021/06/13 05:26:21;;;;;;;15.75;6.28;;;;;;;;;;5063578;28;20044;-58
2021/06/13 05:28:49;;;;;;;11.20;5.75;;;;;;;;;;5067172;28;20048;-58
2021/06/13 05:31:18;;;;;;;9.45;5.43;;;;;;;;;;5064831;28;20070;-58
2021/06/13 05:33:47;;;;;;;12.68;5.70;;;;;;;;;;5066515;28;20123;-59
2021/06/13 05:36:15;;;;;;;11.30;5.75;;;;;;;;;;5064314;28;20128;-59
2021/06/13 05:38:44;;;;;;;9.10;5.10;;;;;;;;;;5065457;28;20048;-58
2021/06/13 05:41:14;;;;;;;7.60;5.40;;;;;;;;;;5065079;28;20044;-58
2021/06/13 05:43:43;;;;;;;8.32;5.07;;;;;;;;;;5062096;28;20079;-59
2021/06/13 05:46:11;;;;;;;7.95;4.68;;;;;;;;;;5058379;28;20451;-59
2021/06/13 05:48:40;;;;;;;13.05;5.07;;;;;;;;;;5059600;28;20096;-58
2021/06/13 05:51:08;;;;;;;10.00;5.18;;;;;;;;;;5060471;28;20152;-58
2021/06/13 05:53:36;;;;;;;7.35;5.07;;;;;;;;;;5065854;28;20044;-59
2021/06/13 05:56:05;;;;;;;10.40;4.45;;;;;;;;;;5062807;28;20139;-58
2021/06/13 05:58:34;;;;;;;12.57;5.07;;;;;;;;;;5064282;28;20387;-58
2021/06/13 06:01:03;;;;;;;7.28;4.13;;;;;;;;;;5064366;28;20044;-58
2021/06/13 06:03:31;;;;;;;10.27;4.70;;;;;;;;;;5064353;28;20147;-59
2021/06/13 06:06:00;;;;;;;9.07;4.47;;;;;;;;;;5066602;28;20151;-59
2021/06/13 06:08:28;;;;;;;7.43;4.75;;;;;;;;;;5067551;28;20044;-58
2021/06/13 06:10:56;;;;;;;9.05;4.63;;;;;;;;;;5059310;28;20124;-59
2021/06/13 06:13:25;;;;;;;7.20;3.88;;;;;;;;;;5053559;28;20131;-58
2021/06/13 06:15:55;;;;;;;9.40;4.15;;;;;;;;;;5070672;28;20052;-59
2021/06/13 06:18:23;;;;;;;8.27;3.92;;;;;;;;;;5069749;28;20143;-59
2021/06/13 06:20:52;;;;;;;9.23;4.50;;;;;;;;;;5069839;28;20055;-58
2021/06/13 06:23:21;;;;;;;7.95;4.07;;;;;;;;;;5067507;28;20044;-58
2021/06/13 06:25:50;;;;;;;9.93;4.38;;;;;;;;;;5070175;28;20542;-57
2021/06/13 06:28:19;;;;;;;12.48;4.50;;;;;;;;;;5069593;28;20048;-59
2021/06/13 06:30:48;;;;;;;13.00;4.78;;;;;;;;;;5065179;28;20565;-57
2021/06/13 06:33:17;;;;;;;7.65;4.40;;;;;;;;;;5070266;28;20511;-59
2021/06/13 06:35:46;;;;;;;10.68;4.05;;;;;;;;;;5069888;28;20105;-58
2021/06/13 06:38:14;;;;;;;9.75;4.60;;;;;;;;;;5068634;28;20088;-58
2021/06/13 06:40:42;;;;;;;9.73;4.45;;;;;;;;;;5064573;28;20052;-58
2021/06/13 06:43:11;;;;;;;8.20;4.15;;;;;;;;;;5066767;28;20492;-57
2021/06/13 06:45:40;;;;;;;7.22;4.00;;;;;;;;;;5070970;28;20094;-58
2021/06/13 06:48:09;;;;;;;8.43;4.80;;;;;;;;;;5057734;28;20103;-58
2021/06/13 06:50:39;;;;;;;12.82;4.70;;;;;;;;;;5056404;28;20109;-59
2021/06/13 06:53:08;;;;;;;9.75;4.90;;;;;;;;;;5064597;28;20085;-58
2021/06/13 06:55:36;;;;;;;7.45;4.10;;;;;;;;;;5049633;28;20131;-59
2021/06/13 06:58:05;;;;;;;11.77;4.50;;;;;;;;;;5067301;28;20500;-59
2021/06/13 07:00:33;;;;;;;8.30;4.70;;;;;;;;;;5066013;28;20081;-59
2021/06/13 07:03:02;;;;;;;7.78;4.30;;;;;;;;;;5051392;28;20140;-59
2021/06/13 07:05:30;;;;;;;7.07;4.43;;;;;;;;;;5042603;28;20135;-59
2021/06/13 07:07:59;;;;;;;9.15;3.70;;;;;;;;;;5047745;28;20045;-59
2021/06/13 07:10:28;;;;;;;7.65;4.38;;;;;;;;;;5044021;28;20551;-59
2021/06/13 07:12:56;;;;;;;12.20;4.30;;;;;;;;;;5049848;28;20056;-58
2021/06/13 07:15:25;;;;;;;8.23;3.97;;;;;;;;;;5045507;28;20041;-58
2021/06/13 07:17:54;;;;;;;12.13;4.20;;;;;;;;;;5045083;28;20049;-58
2021/06/13 07:20:22;;;;;;;6.43;3.78;;;;;;;;;;5047214;28;20136;-58
2021/06/13 07:22:51;;;;;;;6.03;3.90;;;;;;;;;;5046437;28;20121;-58
2021/06/13 07:25:21;;;;;;;10.40;4.55;;;;;;;;;;5049676;28;20100;-58
2021/06/13 07:27:49;;;;;;;8.05;4.57;;;;;;;;;;5048367;28;20076;-58
2021/06/13 07:30:18;;;;;;;11.25;4.43;;;;;;;;;;5048694;28;20231;-58
2021/06/13 07:32:46;;;;;;;10.77;4.32;;;;;;;;;;5046826;28;20099;-58
2021/06/13 07:35:15;;;;;;;6.90;4.35;;;;;;;;;;5041039;28;20132;-58
2021/06/13 07:37:44;;;;;;;5.95;3.65;;;;;;;;;;5041999;28;20378;-57
2021/06/13 07:40:14;;;;;;;9.85;3.70;;;;;;;;;;5041735;28;20046;-58
2021/06/13 07:42:44;;;;;;;7.35;4.38;;;;;;;;;;5039332;28;20057;-59
2021/06/13 07:45:13;;;;;;;7.97;4.45;;;;;;;;;;5028461;28;20052;-58
2021/06/13 07:47:42;;;;;;;14.35;4.78;;;;;;;;;;5045035;28;20501;-58
2021/06/13 07:50:12;;;;;;;13.80;4.82;;;;;;;;;;5038278;28;20057;-58
2021/06/13 07:52:41;;;;;;;10.88;4.45;;;;;;;;;;5047217;28;20477;-58
2021/06/13 07:55:11;;;;;;;7.32;3.72;;;;;;;;;;5042751;28;20228;-57
2021/06/13 07:57:40;;;;;;;12.43;4.47;;;;;;;;;;5047149;28;20072;-57
2021/06/13 08:00:11;;;;;;;7.38;4.43;;;;;;;;;;5045260;28;20386;-59
2021/06/13 08:02:46;;;;;;;9.07;4.00;;;;;;;;;;5046802;28;20068;-59
2021/06/13 08:05:24;;;;;;;10.60;4.55;;;;;;;;;;5037468;28;20759;-58
2021/06/13 08:07:53;;;;;;;9.85;4.43;;;;;;;;;;5040825;28;20051;-58
2021/06/13 08:10:21;;;;;;;11.90;4.70;;;;;;;;;;5047284;28;20075;-59
2021/06/13 08:12:49;;;;;;;9.63;4.03;;;;;;;;;;5045048;28;20132;-58
2021/06/13 08:15:20;;;;;;;8.50;4.53;;;;;;;;;;5048043;28;20459;-57
2021/06/13 08:17:48;;;;;;;9.93;3.90;;;;;;;;;;5032407;28;20163;-58
2021/06/13 08:20:17;;;;;;;9.90;4.43;;;;;;;;;;5040974;28;20041;-57
2021/06/13 08:22:46;;;;;;;8.18;4.25;;;;;;;;;;5039767;28;20061;-58
2021/06/13 08:25:14;;;;;;;10.70;4.20;;;;;;;;;;5043976;28;20077;-58
2021/06/13 08:27:43;;;;;;;11.18;5.25;;;;;;;;;;5041645;28;20059;-58
2021/06/13 08:30:12;;;;;;;5.90;3.70;;;;;;;;;;5048331;28;20071;-59
2021/06/13 08:32:42;;;;;;;8.25;4.60;;;;;;;;;;5047771;28;20331;-57
2021/06/13 08:35:11;;;;;;;10.25;4.38;;;;;;;;;;5046520;28;20045;-58
2021/06/13 08:37:39;;;;;;;5.85;3.97;;;;;;;;;;5038620;28;20049;-57
2021/06/13 08:40:09;;;;;;;10.52;3.90;;;;;;;;;;5044043;28;20053;-58
2021/06/13 08:42:37;;;;;;;8.05;4.32;;;;;;;;;;5041011;28;20063;-58
2021/06/13 08:45:07;;;;;;;6.40;3.97;;;;;;;;;;5041907;28;20052;-58
2021/06/13 08:47:35;;;;;;;5.53;3.67;;;;;;;;;;5038492;28;20180;-57
2021/06/13 08:50:06;;;;;;;9.13;4.18;;;;;;;;;;5045278;28;20306;-58
2021/06/13 08:52:35;;;;;;;5.15;3.83;;;;;;;;;;5046276;28;20350;-58
2021/06/13 08:55:04;;;;;;;8.70;4.00;;;;;;;;;;5034319;28;20116;-57
2021/06/13 08:57:33;;;;;;;8.98;3.88;;;;;;;;;;5042126;28;20053;-57
2021/06/13 09:00:01;;;;;;;9.38;3.65;;;;;;;;;;5049262;28;20041;-58
2021/06/13 09:02:29;;;;;;;10.27;3.85;;;;;;;;;;5036397;28;20136;-58
2021/06/13 09:04:58;;;;;;;6.65;3.47;;;;;;;;;;5039172;28;20136;-58
2021/06/13 09:07:28;;;;;;;8.55;3.65;;;;;;;;;;5047283;28;20053;-57
2021/06/13 09:09:56;;;;;;;4.13;3.22;;;;;;;;;;5045172;28;20143;-57
2021/06/13 09:12:25;;;;;;;7.72;2.92;;;;;;;;;;5038872;28;20045;-57
2021/06/13 09:14:54;;;;;;;7.78;3.45;;;;;;;;;;5046588;28;20362;-57
2021/06/13 09:17:25;;;;;;;9.18;3.40;;;;;;;;;;5047020;28;20139;-57
2021/06/13 09:20:06;;;;;;;8.90;3.17;;;;;;;;;;5046946;28;20049;-57
2021/06/13 09:22:35;;;;;;;4.45;2.75;;;;;;;;;;5041795;28;20436;-57
2021/06/13 09:25:08;;;;;;;5.03;2.75;;;;;;;;;;5041869;28;20425;-57
2021/06/13 09:27:36;;;;;;;6.28;2.90;;;;;;;;;;5045049;28;20153;-57
2021/06/13 09:30:05;;;;;;;4.78;2.90;;;;;;;;;;5044513;28;20156;-57
2021/06/13 09:32:53;;;;;;;5.68;2.60;;;;;;;;;;5045876;28;20120;-57
2021/06/13 09:35:22;;;;;;;4.53;2.67;;;;;;;;;;5047280;28;20151;-58
2021/06/13 09:38:13;;;;;;;6.78;2.67;;;;;;;;;;5037679;28;20293;-57
2021/06/13 09:40:43;;;;;;;9.98;2.75;;;;;;;;;;5028192;28;20076;-59
2021/06/13 09:43:12;;;;;;;5.60;2.97;;;;;;;;;;5047594;28;20533;-56
2021/06/13 09:45:46;;;;;;;10.35;3.05;;;;;;;;;;5029886;28;20665;-56
2021/06/13 09:48:15;;;;;;;7.45;4.07;;;;;;;;;;5047083;28;20049;-57
2021/06/13 09:50:44;;;;;;;5.88;3.10;;;;;;;;;;5046464;28;20049;-56
2021/06/13 09:53:24;;;;;;;9.52;3.38;;;;;;;;;;5046753;28;20056;-56
2021/06/13 09:56:06;;;;;;;7.75;2.90;;;;;;;;;;5034186;28;20120;-56
2021/06/13 09:58:35;;;;;;;5.78;2.88;;;;;;;;;;5011739;28;20664;-57
2021/06/13 10:01:07;;;;;;;7.15;2.83;;;;;;;;;;5044933;28;20048;-57
2021/06/13 10:03:37;;;;;;;7.50;3.30;;;;;;;;;;5054982;28;20056;-57
2021/06/13 10:06:06;;;;;;;5.47;3.28;;;;;;;;;;5061028;28;20055;-58
2021/06/13 10:08:36;;;;;;;7.00;2.88;;;;;;;;;;5053140;28;20165;-57
2021/06/13 10:11:05;;;;;;;6.70;3.35;;;;;;;;;;5053661;28;20136;-58
2021/06/13 10:13:45;;;;;;;6.32;3.30;;;;;;;;;;5061150;28;20044;-58
2021/06/13 10:16:22;;;;;;;5.07;2.50;;;;;;;;;;5057914;28;20036;-57
2021/06/13 10:18:55;;;;;;;4.68;2.65;;;;;;;;;;5067084;28;20049;-57
2021/06/13 10:21:26;;;;;;;9.32;3.28;;;;;;;;;;5060571;28;20136;-57
2021/06/13 10:23:56;;;;;;;4.07;2.40;;;;;;;;;;5056028;28;20131;-56
2021/06/13 10:26:24;;;;;;;4.00;2.40;;;;;;;;;;5066702;28;20541;-57
2021/06/13 10:28:53;;;;;;;3.65;2.63;;;;;;;;;;5066988;28;20055;-57
2021/06/13 10:31:21;;;;;;;6.25;2.60;;;;;;;;;;5062954;28;20052;-56
2021/06/13 10:33:49;;;;;;;8.15;3.28;;;;;;;;;;5062163;28;20078;-56
2021/06/13 10:36:18;;;;;;;6.10;3.28;;;;;;;;;;5062611;28;20056;-57
2021/06/13 10:38:46;;;;;;;5.40;3.28;;;;;;;;;;5067164;28;20052;-57
2021/06/13 10:41:16;;;;;;;5.68;2.40;;;;;;;;;;5060768;28;20057;-57
2021/06/13 10:43:44;;;;;;;9.95;2.83;;;;;;;;;;5065304;28;20131;-57
2021/06/13 10:46:14;;;;;;;4.00;2.10;;;;;;;;;;5063522;28;20259;-57
2021/06/13 10:48:44;;;;;;;5.93;2.10;;;;;;;;;;5064785;28;20064;-58
2021/06/13 10:51:31;;;;;;;6.05;2.47;;;;;;;;;;5067003;28;20063;-57
2021/06/13 10:54:18;;;;;;;5.18;2.30;;;;;;;;;;5061333;28;20143;-57
2021/06/13 10:56:48;;;;;;;4.82;2.25;;;;;;;;;;5045952;28;20124;-57
2021/06/13 10:59:18;;;;;;;3.30;2.15;;;;;;;;;;5048516;28;20098;-57
2021/06/13 11:02:03;;;;;;;3.53;2.08;;;;;;;;;;5069200;28;20070;-57
2021/06/13 11:04:45;;;;;;;5.93;2.30;;;;;;;;;;5053389;28;20057;-57
2021/06/13 11:07:35;;;;;;;5.97;1.95;;;;;;;;;;5054173;28;20048;-57
2021/06/13 11:10:14;;;;;;;4.18;2.30;;;;;;;;;;5056391;28;20464;-57
2021/06/13 11:12:46;;;;;;;3.40;2.00;;;;;;;;;;5066004;28;20567;-58
2021/06/13 11:15:19;;;;;;;3.78;2.22;;;;;;;;;;5070006;28;20485;-57
2021/06/13 11:17:54;;;;;;;4.55;2.15;;;;;;;;;;5068913;28;20123;-57
2021/06/13 11:20:37;;;;;;;3.05;1.95;;;;;;;;;;5071124;28;20515;-57
2021/06/13 11:23:06;;;;;;;5.88;2.10;;;;;;;;;;5070739;28;20522;-57
2021/06/13 11:25:37;;;;;;;4.10;2.03;;;;;;;;;;5071227;28;20051;-58
2021/06/13 11:28:12;;;;;;;5.00;2.30;;;;;;;;;;5068661;28;20059;-57
2021/06/13 11:30:42;;;;;;;;;;;;;;;;;;5071245;28;20148;-58
2021/06/13 11:33:11;;;;;;;5.35;2.10;;;;;;;;;;5067535;28;20034;-57
2021/06/13 11:35:44;;;;;;;6.60;2.30;;;;;;;;;;5071879;28;20044;-57
2021/06/13 11:38:26;;;;;;;3.17;2.33;;;;;;;;;;5058145;28;20136;-58
2021/06/13 11:40:56;;;;;;;4.93;2.40;;;;;;;;;;5068961;28;20067;-57
2021/06/13 11:43:30;;;;;;;3.22;1.92;;;;;;;;;;5071669;28;20040;-57
2021/06/13 11:45:59;;;;;;;6.53;2.33;;;;;;;;;;5072466;28;20098;-58
2021/06/13 11:48:28;;;;;;;5.38;1.83;;;;;;;;;;5072407;28;20119;-58
2021/06/13 11:51:01;;;;;;;3.45;2.17;;;;;;;;;;5072301;28;20136;-57
2021/06/13 11:53:48;;;;;;;4.22;2.00;;;;;;;;;;5068874;28;20040;-58
2021/06/13 11:56:31;;;;;;;5.70;2.72;;;;;;;;;;5062510;28;20041;-57
2021/06/13 11:59:01;;;;;;;6.93;2.80;;;;;;;;;;5065726;28;20071;-57
2021/06/13 12:01:31;;;;;;;4.63;2.00;;;;;;;;;;5075201;28;20499;-57
2021/06/13 12:04:00;;;;;;;4.28;2.10;;;;;;;;;;5066751;28;20059;-58
2021/06/13 12:06:28;;;;;;;6.72;2.20;;;;;;;;;;5071842;28;20132;-57
2021/06/13 12:08:57;;;;;;;5.03;2.13;;;;;;;;;;5070946;28;20048;-58
2021/06/13 12:11:43;;;;;;;3.70;1.58;;;;;;;;;;5063883;28;20080;-58
2021/06/13 12:14:21;;;;;;;1.90;1.50;;;;;;;;;;5061056;28;20049;-57
2021/06/13 12:16:50;;;;;;;4.00;1.70;;;;;;;;;;5064034;28;20427;-57
2021/06/13 12:19:26;;;;;;;3.55;1.73;;;;;;;;;;5070028;28;20094;-57
2021/06/13 12:21:54;;;;;;;7.03;1.60;;;;;;;;;;5071486;28;20573;-57
2021/06/13 12:24:34;;;;;;;4.05;1.58;;;;;;;;;;5068525;28;20071;-58
2021/06/13 12:27:25;;;;;;;5.35;1.98;;;;;;;;;;5058942;28;20106;-56
2021/06/13 12:29:55;;;;;;;2.90;1.65;;;;;;;;;;5067359;28;20040;-57
2021/06/13 12:32:24;;;;;;;3.50;1.50;;;;;;;;;;5065374;28;20058;-58
2021/06/13 12:35:05;;;;;;;6.60;2.20;;;;;;;;;;5071233;28;20053;-58
2021/06/13 12:37:33;;;;;;;2.03;1.52;;;;;;;;;;5062701;28;20466;-57
2021/06/13 12:40:03;;;;;;;4.65;1.52;;;;;;;;;;5057593;28;20499;-58
2021/06/13 12:42:32;;;;;;;4.00;1.45;;;;;;;;;;4997925;28;32500;-57
2021/06/13 12:45:18;;;;;;;3.47;1.23;;;;;;;;;;818889;28;10003287;-57
2021/06/13 12:47:48;;;;;;;2.92;1.65;;;;;;;;;;5057254;28;20269;-57
2021/06/13 12:50:21;;;;;;;1.98;1.40;;;;;;;;;;5070585;28;20049;-57
2021/06/13 12:52:50;;;;;;;1.58;1.30;;;;;;;;;;5063762;28;20128;-58
2021/06/13 12:55:19;;;;;;;4.25;1.60;;;;;;;;;;5070547;28;20478;-58
2021/06/13 12:57:49;;;;;;;2.40;1.30;;;;;;;;;;5066847;28;20094;-58
2021/06/13 13:00:20;;;;;;;3.60;1.25;;;;;;;;;;5066302;28;20052;-58
2021/06/13 13:02:48;;;;;;;2.92;1.25;;;;;;;;;;5064838;28;20139;-57
2021/06/13 13:05:18;;;;;;;3.05;1.40;;;;;;;;;;5070198;28;20083;-57
2021/06/13 13:07:47;;;;;;;2.28;1.33;;;;;;;;;;5062470;28;20071;-56
2021/06/13 13:10:17;;;;;;;2.63;1.20;;;;;;;;;;5069210;28;20095;-57
2021/06/13 13:12:51;;;;;;;2.08;1.23;;;;;;;;;;5067924;28;20155;-57
2021/06/13 13:15:24;;;;;;;4.55;1.45;;;;;;;;;;5061157;28;20076;-57
2021/06/13 13:17:53;;;;;;;3.22;1.60;;;;;;;;;;5063732;28;20064;-58
2021/06/13 13:20:24;;;;;;;3.60;1.20;;;;;;;;;;5049937;28;20068;-58
2021/06/13 13:22:53;;;;;;;1.80;1.20;;;;;;;;;;5052504;28;20179;-57
2021/06/13 13:25:22;;;;;;;5.25;1.20;;;;;;;;;;5067971;28;20055;-57
2021/06/13 13:27:52;;;;;;;2.03;1.35;;;;;;;;;;5055868;28;20529;-57
2021/06/13 13:30:29;;;;;;;4.40;1.13;;;;;;;;;;5067930;28;20048;-58
2021/06/13 13:32:59;;;;;;;4.10;1.10;;;;;;;;;;5065584;28;20127;-57
2021/06/13 13:35:29;;;;;;;5.80;1.65;;;;;;;;;;5068830;28;20048;-56
2021/06/13 13:37:57;;;;;;;2.95;1.33;;;;;;;;;;5065660;28;20102;-58
2021/06/13 13:40:27;;;;;;;4.85;1.35;;;;;;;;;;5056432;28;20044;-57
2021/06/13 13:42:57;;;;;;;5.93;1.50;;;;;;;;;;5062954;28;20098;-57
2021/06/13 13:45:26;;;;;;;6.47;1.48;;;;;;;;;;5069114;28;20040;-58
2021/06/13 13:48:06;;;;;;;3.83;1.48;;;;;;;;;;5066303;28;20048;-58
2021/06/13 13:50:36;;;;;;;2.38;1.40;;;;;;;;;;5060041;28;20045;-57
2021/06/13 13:53:17;;;;;;;3.63;1.38;;;;;;;;;;5069419;28;20080;-56
2021/06/13 13:55:47;;;;;;;4.50;1.30;;;;;;;;;;5067216;28;20120;-58
2021/06/13 13:58:16;;;;;;;3.20;1.23;;;;;;;;;;5060923;28;20553;-57
2021/06/13 14:00:44;;;;;;;4.10;1.65;;;;;;;;;;5054260;28;20083;-57
2021/06/13 14:03:16;;;;;;;3.22;1.45;;;;;;;;;;5059753;28;20057;-57
2021/06/13 14:05:45;;;;;;;6.28;1.33;;;;;;;;;;5062796;28;20053;-58
2021/06/13 14:08:13;;;;;;;4.20;1.27;;;;;;;;;;5048865;28;20053;-57
2021/06/13 14:10:42;;;;;;;4.75;1.38;;;;;;;;;;5049610;28;20047;-57
2021/06/13 14:13:10;;;;;;;7.53;5.40;;;;;;;;;;5067341;28;20044;-58
2021/06/13 14:15:38;;;;;;;2.15;1.48;;;;;;;;;;5069325;28;20160;-57
2021/06/13 14:18:08;;;;;;;2.90;1.42;;;;;;;;;;5055930;28;20052;-57
2021/06/13 14:20:38;;;;;;;4.68;2.85;;;;;;;;;;5057796;28;20143;-58
2021/06/13 14:23:07;;;;;;;5.43;1.77;;;;;;;;;;5069985;28;20063;-58
2021/06/13 14:25:36;;;;;;;3.30;1.40;;;;;;;;;;5068491;28;20545;-57
2021/06/13 14:28:06;;;;;;;10.90;2.00;;;;;;;;;;5067001;28;20044;-58
2021/06/13 14:30:35;;;;;;;3.60;1.30;;;;;;;;;;5069006;28;20079;-57
2021/06/13 14:33:04;;;;;;;3.60;1.40;;;;;;;;;;5068649;28;20127;-57
2021/06/13 14:35:33;;;;;;;5.47;1.27;;;;;;;;;;5068355;28;20431;-57
2021/06/13 14:38:03;;;;;;;1.80;1.25;;;;;;;;;;5067425;28;20152;-58
2021/06/13 14:40:32;;;;;;;2.92;1.45;;;;;;;;;;5068023;28;20102;-58
2021/06/13 14:43:00;;;;;;;2.63;1.52;;;;;;;;;;5067687;28;20115;-57
2021/06/13 14:45:29;;;;;;;4.97;1.50;;;;;;;;;;5066585;28;20119;-58
2021/06/13 14:47:57;;;;;;;1.98;1.58;;;;;;;;;;5073254;28;20057;-58
2021/06/13 14:50:26;;;;;;;3.35;1.20;;;;;;;;;;5075204;28;20050;-58
2021/06/13 14:52:54;;;;;;;3.25;1.40;;;;;;;;;;5076004;28;20066;-58
2021/06/13 14:55:25;;;;;;;4.90;1.40;;;;;;;;;;5075985;28;20051;-58
2021/06/13 14:57:53;;;;;;;3.10;1.45;;;;;;;;;;5073830;28;20131;-59
2021/06/13 15:00:22;;;;;;;4.60;1.38;;;;;;;;;;5071223;28;20119;-59